Terminal Aerodrome Forecast
Issued by NWS Lake Charles, LA

Home | Current Version | Previous Version | Text Only | Print | Product List | Glossary On
Versions: 1 2 3 4 5 6 7 8 9 10 11 12 13 14 15
000
FTUS44 KLCH 041734
TAFBPT
TAF
KBPT 041734Z 0418/0518 14012KT P6SM SCT045
     FM050400 13012KT P6SM SCT030 BKN045 BKN250
     FM050700 12012KT P6SM BKN024 BKN045
     FM050900 13012KT P6SM VCSH OVC024
     FM051500 12017G25KT P6SM VCTS BKN023CB=

USA.gov is the U.S. government's official web portal to all federal, state and local government web resources and services.